sensor_id;sensor_type;location;lat;lon;timestamp;P1;durP1;ratioP1;P2;durP2;ratioP2
13441;SDS011;6793;55.662;13.114;2024-03-29T00:08:52;0.50;;;0.50;;
13441;SDS011;6793;55.662;13.114;2024-03-29T00:11:18;0.40;;;0.40;;
13441;SDS011;6793;55.662;13.114;2024-03-29T00:13:45;0.50;;;0.50;;
13441;SDS011;6793;55.662;13.114;2024-03-29T00:16:11;0.40;;;0.40;;
13441;SDS011;6793;55.662;13.114;2024-03-29T00:18:38;0.40;;;0.40;;
13441;SDS011;6793;55.662;13.114;2024-03-29T00:21:04;0.60;;;0.60;;
13441;SDS011;6793;55.662;13.114;2024-03-29T00:23:30;0.60;;;0.60;;
13441;SDS011;6793;55.662;13.114;2024-03-29T00:25:56;0.60;;;0.60;;
13441;SDS011;6793;55.662;13.114;2024-03-29T00:28:22;0.50;;;0.50;;
13441;SDS011;6793;55.662;13.114;2024-03-29T00:30:50;0.60;;;0.60;;
13441;SDS011;6793;55.662;13.114;2024-03-29T00:33:16;0.60;;;0.60;;
13441;SDS011;6793;55.662;13.114;2024-03-29T00:35:42;0.60;;;0.60;;
13441;SDS011;6793;55.662;13.114;2024-03-29T00:38:08;0.50;;;0.50;;
13441;SDS011;6793;55.662;13.114;2024-03-29T00:40:35;0.50;;;0.50;;
13441;SDS011;6793;55.662;13.114;2024-03-29T00:43:01;0.60;;;0.60;;
13441;SDS011;6793;55.662;13.114;2024-03-29T00:45:27;0.60;;;0.60;;
13441;SDS011;6793;55.662;13.114;2024-03-29T00:47:55;0.50;;;0.50;;
13441;SDS011;6793;55.662;13.114;2024-03-29T00:50:21;0.60;;;0.60;;
13441;SDS011;6793;55.662;13.114;2024-03-29T00:52:47;0.55;;;0.55;;
13441;SDS011;6793;55.662;13.114;2024-03-29T00:55:13;0.60;;;0.60;;
13441;SDS011;6793;55.662;13.114;2024-03-29T00:57:39;0.50;;;0.50;;
13441;SDS011;6793;55.662;13.114;2024-03-29T01:00:06;0.60;;;0.60;;
13441;SDS011;6793;55.662;13.114;2024-03-29T01:02:32;0.60;;;0.60;;
13441;SDS011;6793;55.662;13.114;2024-03-29T01:05:00;0.60;;;0.60;;
13441;SDS011;6793;55.662;13.114;2024-03-29T01:07:26;0.50;;;0.50;;
13441;SDS011;6793;55.662;13.114;2024-03-29T01:09:52;0.50;;;0.50;;
13441;SDS011;6793;55.662;13.114;2024-03-29T01:12:18;0.50;;;0.50;;
13441;SDS011;6793;55.662;13.114;2024-03-29T01:14:44;0.50;;;0.50;;
13441;SDS011;6793;55.662;13.114;2024-03-29T01:17:11;0.60;;;0.60;;
13441;SDS011;6793;55.662;13.114;2024-03-29T01:19:37;0.50;;;0.50;;
13441;SDS011;6793;55.662;13.114;2024-03-29T01:22:04;0.50;;;0.50;;
13441;SDS011;6793;55.662;13.114;2024-03-29T01:24:31;0.50;;;0.50;;
13441;SDS011;6793;55.662;13.114;2024-03-29T01:26:57;0.57;;;0.57;;
13441;SDS011;6793;55.662;13.114;2024-03-29T01:29:23;0.50;;;0.50;;
13441;SDS011;6793;55.662;13.114;2024-03-29T01:31:49;0.50;;;0.50;;
13441;SDS011;6793;55.662;13.114;2024-03-29T01:34:15;0.60;;;0.60;;
13441;SDS011;6793;55.662;13.114;2024-03-29T01:36:42;0.60;;;0.60;;
13441;SDS011;6793;55.662;13.114;2024-03-29T01:39:10;0.60;;;0.60;;
13441;SDS011;6793;55.662;13.114;2024-03-29T01:41:36;0.50;;;0.50;;
13441;SDS011;6793;55.662;13.114;2024-03-29T01:44:02;0.63;;;0.63;;
13441;SDS011;6793;55.662;13.114;2024-03-29T01:46:29;0.60;;;0.60;;
13441;SDS011;6793;55.662;13.114;2024-03-29T01:48:56;0.50;;;0.50;;
13441;SDS011;6793;55.662;13.114;2024-03-29T01:51:24;0.50;;;0.50;;
13441;SDS011;6793;55.662;13.114;2024-03-29T01:53:52;0.60;;;0.60;;
13441;SDS011;6793;55.662;13.114;2024-03-29T01:56:21;0.50;;;0.50;;
13441;SDS011;6793;55.662;13.114;2024-03-29T01:58:49;0.50;;;0.50;;
13441;SDS011;6793;55.662;13.114;2024-03-29T02:01:16;0.50;;;0.50;;
13441;SDS011;6793;55.662;13.114;2024-03-29T02:03:43;0.50;;;0.50;;
13441;SDS011;6793;55.662;13.114;2024-03-29T02:06:10;0.60;;;0.60;;
13441;SDS011;6793;55.662;13.114;2024-03-29T02:08:38;0.52;;;0.52;;
13441;SDS011;6793;55.662;13.114;2024-03-29T02:11:05;0.50;;;0.50;;
13441;SDS011;6793;55.662;13.114;2024-03-29T02:13:34;0.50;;;0.50;;
13441;SDS011;6793;55.662;13.114;2024-03-29T02:16:03;0.55;;;0.55;;
13441;SDS011;6793;55.662;13.114;2024-03-29T02:18:30;0.50;;;0.50;;
13441;SDS011;6793;55.662;13.114;2024-03-29T02:20:57;0.50;;;0.50;;
13441;SDS011;6793;55.662;13.114;2024-03-29T02:23:26;0.50;;;0.50;;
13441;SDS011;6793;55.662;13.114;2024-03-29T02:25:54;0.50;;;0.50;;
13441;SDS011;6793;55.662;13.114;2024-03-29T02:28:22;0.50;;;0.50;;
13441;SDS011;6793;55.662;13.114;2024-03-29T02:30:49;0.50;;;0.50;;
13441;SDS011;6793;55.662;13.114;2024-03-29T02:33:16;0.50;;;0.50;;
13441;SDS011;6793;55.662;13.114;2024-03-29T02:35:43;0.50;;;0.50;;
13441;SDS011;6793;55.662;13.114;2024-03-29T02:38:10;0.50;;;0.50;;
13441;SDS011;6793;55.662;13.114;2024-03-29T02:40:37;0.50;;;0.50;;
13441;SDS011;6793;55.662;13.114;2024-03-29T02:43:05;0.50;;;0.50;;
13441;SDS011;6793;55.662;13.114;2024-03-29T02:45:32;0.50;;;0.50;;
13441;SDS011;6793;55.662;13.114;2024-03-29T02:48:00;0.50;;;0.50;;
13441;SDS011;6793;55.662;13.114;2024-03-29T02:50:26;0.50;;;0.50;;
13441;SDS011;6793;55.662;13.114;2024-03-29T02:52:53;0.50;;;0.50;;
13441;SDS011;6793;55.662;13.114;2024-03-29T02:55:19;0.60;;;0.60;;
13441;SDS011;6793;55.662;13.114;2024-03-29T02:57:46;0.50;;;0.50;;
13441;SDS011;6793;55.662;13.114;2024-03-29T03:00:14;0.50;;;0.50;;
13441;SDS011;6793;55.662;13.114;2024-03-29T03:02:41;0.60;;;0.60;;
13441;SDS011;6793;55.662;13.114;2024-03-29T03:05:07;0.50;;;0.50;;
13441;SDS011;6793;55.662;13.114;2024-03-29T03:07:35;0.50;;;0.50;;
13441;SDS011;6793;55.662;13.114;2024-03-29T03:10:20;0.50;;;0.50;;
13441;SDS011;6793;55.662;13.114;2024-03-29T03:13:04;0.50;;;0.50;;
13441;SDS011;6793;55.662;13.114;2024-03-29T03:15:33;0.60;;;0.60;;
13441;SDS011;6793;55.662;13.114;2024-03-29T03:18:00;0.50;;;0.50;;
13441;SDS011;6793;55.662;13.114;2024-03-29T03:20:27;0.50;;;0.50;;
13441;SDS011;6793;55.662;13.114;2024-03-29T03:22:55;0.60;;;0.60;;
13441;SDS011;6793;55.662;13.114;2024-03-29T03:25:22;0.50;;;0.50;;
13441;SDS011;6793;55.662;13.114;2024-03-29T03:27:48;0.55;;;0.55;;
13441;SDS011;6793;55.662;13.114;2024-03-29T03:30:15;0.60;;;0.60;;
13441;SDS011;6793;55.662;13.114;2024-03-29T03:32:43;0.50;;;0.50;;
13441;SDS011;6793;55.662;13.114;2024-03-29T03:35:10;0.70;;;0.70;;
13441;SDS011;6793;55.662;13.114;2024-03-29T03:37:36;0.60;;;0.60;;
13441;SDS011;6793;55.662;13.114;2024-03-29T03:40:03;0.60;;;0.60;;
13441;SDS011;6793;55.662;13.114;2024-03-29T03:42:29;0.60;;;0.60;;
13441;SDS011;6793;55.662;13.114;2024-03-29T03:44:56;0.60;;;0.60;;
13441;SDS011;6793;55.662;13.114;2024-03-29T03:47:22;0.60;;;0.60;;
13441;SDS011;6793;55.662;13.114;2024-03-29T03:49:51;0.50;;;0.50;;
13441;SDS011;6793;55.662;13.114;2024-03-29T03:52:17;0.60;;;0.60;;
13441;SDS011;6793;55.662;13.114;2024-03-29T03:54:44;0.60;;;0.60;;
13441;SDS011;6793;55.662;13.114;2024-03-29T03:57:10;0.60;;;0.60;;
13441;SDS011;6793;55.662;13.114;2024-03-29T03:59:38;0.70;;;0.70;;
13441;SDS011;6793;55.662;13.114;2024-03-29T04:02:04;0.70;;;0.70;;
13441;SDS011;6793;55.662;13.114;2024-03-29T04:04:31;0.70;;;0.70;;
13441;SDS011;6793;55.662;13.114;2024-03-29T04:06:59;0.70;;;0.70;;
13441;SDS011;6793;55.662;13.114;2024-03-29T04:09:25;0.80;;;0.80;;
13441;SDS011;6793;55.662;13.114;2024-03-29T04:11:52;0.80;;;0.80;;
13441;SDS011;6793;55.662;13.114;2024-03-29T04:14:18;0.90;;;0.90;;
13441;SDS011;6793;55.662;13.114;2024-03-29T04:16:46;0.90;;;0.90;;
13441;SDS011;6793;55.662;13.114;2024-03-29T04:19:12;0.80;;;0.80;;
13441;SDS011;6793;55.662;13.114;2024-03-29T04:21:39;1.00;;;1.00;;
13441;SDS011;6793;55.662;13.114;2024-03-29T04:24:06;0.90;;;0.90;;
13441;SDS011;6793;55.662;13.114;2024-03-29T04:26:35;1.00;;;1.00;;
13441;SDS011;6793;55.662;13.114;2024-03-29T04:29:01;0.90;;;0.90;;
13441;SDS011;6793;55.662;13.114;2024-03-29T04:31:28;0.88;;;0.88;;
13441;SDS011;6793;55.662;13.114;2024-03-29T04:33:54;0.90;;;0.90;;
13441;SDS011;6793;55.662;13.114;2024-03-29T04:36:21;0.90;;;0.90;;
13441;SDS011;6793;55.662;13.114;2024-03-29T04:38:48;1.00;;;1.00;;
13441;SDS011;6793;55.662;13.114;2024-03-29T04:41:16;0.93;;;0.93;;
13441;SDS011;6793;55.662;13.114;2024-03-29T04:43:43;0.90;;;0.90;;
13441;SDS011;6793;55.662;13.114;2024-03-29T04:46:11;0.93;;;0.93;;
13441;SDS011;6793;55.662;13.114;2024-03-29T04:48:38;1.10;;;1.10;;
13441;SDS011;6793;55.662;13.114;2024-03-29T04:51:06;1.00;;;1.00;;
13441;SDS011;6793;55.662;13.114;2024-03-29T04:53:34;1.00;;;1.00;;
13441;SDS011;6793;55.662;13.114;2024-03-29T04:56:02;1.10;;;1.10;;
13441;SDS011;6793;55.662;13.114;2024-03-29T04:58:31;0.98;;;0.98;;
13441;SDS011;6793;55.662;13.114;2024-03-29T05:00:58;1.00;;;1.00;;
13441;SDS011;6793;55.662;13.114;2024-03-29T05:03:25;1.00;;;1.00;;
13441;SDS011;6793;55.662;13.114;2024-03-29T05:05:52;1.00;;;1.00;;
13441;SDS011;6793;55.662;13.114;2024-03-29T05:08:19;1.10;;;1.10;;
13441;SDS011;6793;55.662;13.114;2024-03-29T05:10:48;1.00;;;1.00;;
13441;SDS011;6793;55.662;13.114;2024-03-29T05:13:15;0.90;;;0.90;;
13441;SDS011;6793;55.662;13.114;2024-03-29T05:15:44;0.90;;;0.90;;
13441;SDS011;6793;55.662;13.114;2024-03-29T05:18:11;0.90;;;0.90;;
13441;SDS011;6793;55.662;13.114;2024-03-29T05:20:38;0.80;;;0.80;;
13441;SDS011;6793;55.662;13.114;2024-03-29T05:23:06;0.80;;;0.80;;
13441;SDS011;6793;55.662;13.114;2024-03-29T05:25:33;0.70;;;0.70;;
13441;SDS011;6793;55.662;13.114;2024-03-29T05:28:00;0.68;;;0.68;;
13441;SDS011;6793;55.662;13.114;2024-03-29T05:30:28;0.70;;;0.70;;
13441;SDS011;6793;55.662;13.114;2024-03-29T05:32:57;0.60;;;0.60;;
13441;SDS011;6793;55.662;13.114;2024-03-29T05:35:24;0.50;;;0.50;;
13441;SDS011;6793;55.662;13.114;2024-03-29T05:37:51;0.50;;;0.50;;
13441;SDS011;6793;55.662;13.114;2024-03-29T05:40:19;0.40;;;0.40;;
13441;SDS011;6793;55.662;13.114;2024-03-29T05:42:50;0.45;;;0.45;;
13441;SDS011;6793;55.662;13.114;2024-03-29T05:45:23;0.40;;;0.40;;
13441;SDS011;6793;55.662;13.114;2024-03-29T05:47:51;0.40;;;0.40;;
13441;SDS011;6793;55.662;13.114;2024-03-29T05:50:20;0.50;;;0.50;;
13441;SDS011;6793;55.662;13.114;2024-03-29T05:52:47;0.40;;;0.40;;
13441;SDS011;6793;55.662;13.114;2024-03-29T05:55:14;0.30;;;0.30;;
13441;SDS011;6793;55.662;13.114;2024-03-29T05:57:42;0.30;;;0.30;;
13441;SDS011;6793;55.662;13.114;2024-03-29T06:00:10;0.30;;;0.30;;
13441;SDS011;6793;55.662;13.114;2024-03-29T06:02:38;0.30;;;0.30;;
13441;SDS011;6793;55.662;13.114;2024-03-29T06:05:05;0.40;;;0.40;;
13441;SDS011;6793;55.662;13.114;2024-03-29T06:07:35;0.40;;;0.40;;
13441;SDS011;6793;55.662;13.114;2024-03-29T06:10:02;0.40;;;0.40;;
13441;SDS011;6793;55.662;13.114;2024-03-29T06:12:30;0.40;;;0.40;;
13441;SDS011;6793;55.662;13.114;2024-03-29T06:14:57;0.50;;;0.50;;
13441;SDS011;6793;55.662;13.114;2024-03-29T06:17:42;0.55;;;0.55;;
13441;SDS011;6793;55.662;13.114;2024-03-29T06:20:10;0.60;;;0.60;;
13441;SDS011;6793;55.662;13.114;2024-03-29T06:22:38;0.60;;;0.60;;
13441;SDS011;6793;55.662;13.114;2024-03-29T06:25:05;0.68;;;0.68;;
13441;SDS011;6793;55.662;13.114;2024-03-29T06:27:34;0.60;;;0.60;;
13441;SDS011;6793;55.662;13.114;2024-03-29T06:30:02;0.50;;;0.50;;
13441;SDS011;6793;55.662;13.114;2024-03-29T06:32:29;0.50;;;0.50;;
13441;SDS011;6793;55.662;13.114;2024-03-29T06:34:56;0.60;;;0.60;;
13441;SDS011;6793;55.662;13.114;2024-03-29T06:37:24;0.60;;;0.60;;
13441;SDS011;6793;55.662;13.114;2024-03-29T06:39:53;0.57;;;0.57;;
13441;SDS011;6793;55.662;13.114;2024-03-29T06:42:21;0.50;;;0.50;;
13441;SDS011;6793;55.662;13.114;2024-03-29T06:44:49;0.50;;;0.50;;
13441;SDS011;6793;55.662;13.114;2024-03-29T06:47:17;0.60;;;0.60;;
13441;SDS011;6793;55.662;13.114;2024-03-29T06:49:44;0.60;;;0.60;;
13441;SDS011;6793;55.662;13.114;2024-03-29T06:52:11;0.60;;;0.60;;
13441;SDS011;6793;55.662;13.114;2024-03-29T06:54:38;0.60;;;0.60;;
13441;SDS011;6793;55.662;13.114;2024-03-29T06:57:07;0.60;;;0.60;;
13441;SDS011;6793;55.662;13.114;2024-03-29T06:59:37;0.60;;;0.60;;
13441;SDS011;6793;55.662;13.114;2024-03-29T07:02:04;0.60;;;0.60;;
13441;SDS011;6793;55.662;13.114;2024-03-29T07:04:31;0.50;;;0.50;;
13441;SDS011;6793;55.662;13.114;2024-03-29T07:06:58;0.55;;;0.55;;
13441;SDS011;6793;55.662;13.114;2024-03-29T07:09:25;0.60;;;0.60;;
13441;SDS011;6793;55.662;13.114;2024-03-29T07:11:52;0.60;;;0.60;;
13441;SDS011;6793;55.662;13.114;2024-03-29T07:14:21;0.50;;;0.50;;
13441;SDS011;6793;55.662;13.114;2024-03-29T07:16:50;0.50;;;0.50;;
13441;SDS011;6793;55.662;13.114;2024-03-29T07:19:17;0.60;;;0.60;;
13441;SDS011;6793;55.662;13.114;2024-03-29T07:21:46;0.60;;;0.60;;
13441;SDS011;6793;55.662;13.114;2024-03-29T07:24:13;0.70;;;0.70;;
13441;SDS011;6793;55.662;13.114;2024-03-29T07:26:40;0.60;;;0.60;;
13441;SDS011;6793;55.662;13.114;2024-03-29T07:29:07;0.60;;;0.60;;
13441;SDS011;6793;55.662;13.114;2024-03-29T07:31:35;0.60;;;0.60;;
13441;SDS011;6793;55.662;13.114;2024-03-29T07:34:02;0.70;;;0.70;;
13441;SDS011;6793;55.662;13.114;2024-03-29T07:36:29;0.70;;;0.70;;
13441;SDS011;6793;55.662;13.114;2024-03-29T07:39:00;0.82;;;0.82;;
13441;SDS011;6793;55.662;13.114;2024-03-29T07:41:29;0.60;;;0.60;;
13441;SDS011;6793;55.662;13.114;2024-03-29T07:43:56;0.80;;;0.80;;
13441;SDS011;6793;55.662;13.114;2024-03-29T07:46:26;0.70;;;0.70;;
13441;SDS011;6793;55.662;13.114;2024-03-29T07:48:55;0.60;;;0.60;;
13441;SDS011;6793;55.662;13.114;2024-03-29T07:51:22;0.60;;;0.60;;
13441;SDS011;6793;55.662;13.114;2024-03-29T07:53:49;0.70;;;0.70;;
13441;SDS011;6793;55.662;13.114;2024-03-29T07:56:16;0.70;;;0.70;;
13441;SDS011;6793;55.662;13.114;2024-03-29T07:58:43;0.70;;;0.70;;
13441;SDS011;6793;55.662;13.114;2024-03-29T08:01:10;0.80;;;0.80;;
13441;SDS011;6793;55.662;13.114;2024-03-29T08:03:37;0.90;;;0.90;;
13441;SDS011;6793;55.662;13.114;2024-03-29T08:06:06;0.70;;;0.70;;
13441;SDS011;6793;55.662;13.114;2024-03-29T08:08:33;0.85;;;0.85;;
13441;SDS011;6793;55.662;13.114;2024-03-29T08:11:00;0.80;;;0.80;;
13441;SDS011;6793;55.662;13.114;2024-03-29T08:13:27;0.80;;;0.80;;
13441;SDS011;6793;55.662;13.114;2024-03-29T08:15:57;0.80;;;0.80;;
13441;SDS011;6793;55.662;13.114;2024-03-29T08:18:25;0.80;;;0.80;;
13441;SDS011;6793;55.662;13.114;2024-03-29T08:20:52;0.60;;;0.60;;
13441;SDS011;6793;55.662;13.114;2024-03-29T08:23:21;0.70;;;0.70;;
13441;SDS011;6793;55.662;13.114;2024-03-29T08:25:48;0.70;;;0.70;;
13441;SDS011;6793;55.662;13.114;2024-03-29T08:28:16;0.73;;;0.73;;
13441;SDS011;6793;55.662;13.114;2024-03-29T08:30:44;0.80;;;0.80;;
13441;SDS011;6793;55.662;13.114;2024-03-29T08:33:11;0.70;;;0.70;;
13441;SDS011;6793;55.662;13.114;2024-03-29T08:35:38;0.80;;;0.80;;
13441;SDS011;6793;55.662;13.114;2024-03-29T08:38:08;0.80;;;0.80;;
13441;SDS011;6793;55.662;13.114;2024-03-29T08:40:36;0.70;;;0.70;;
13441;SDS011;6793;55.662;13.114;2024-03-29T08:43:07;0.60;;;0.60;;
13441;SDS011;6793;55.662;13.114;2024-03-29T08:45:34;0.70;;;0.70;;
13441;SDS011;6793;55.662;13.114;2024-03-29T08:48:05;0.70;;;0.70;;
13441;SDS011;6793;55.662;13.114;2024-03-29T08:50:33;0.82;;;0.82;;
13441;SDS011;6793;55.662;13.114;2024-03-29T08:53:00;0.80;;;0.80;;
13441;SDS011;6793;55.662;13.114;2024-03-29T08:55:28;0.80;;;0.80;;
13441;SDS011;6793;55.662;13.114;2024-03-29T08:57:56;0.80;;;0.80;;
13441;SDS011;6793;55.662;13.114;2024-03-29T09:00:24;0.70;;;0.70;;
13441;SDS011;6793;55.662;13.114;2024-03-29T09:02:51;0.60;;;0.60;;
13441;SDS011;6793;55.662;13.114;2024-03-29T09:05:18;0.60;;;0.60;;
13441;SDS011;6793;55.662;13.114;2024-03-29T09:07:47;0.70;;;0.70;;
13441;SDS011;6793;55.662;13.114;2024-03-29T09:10:17;0.60;;;0.60;;
13441;SDS011;6793;55.662;13.114;2024-03-29T09:12:44;0.60;;;0.60;;
13441;SDS011;6793;55.662;13.114;2024-03-29T09:15:12;0.60;;;0.60;;
13441;SDS011;6793;55.662;13.114;2024-03-29T09:17:40;0.70;;;0.70;;
13441;SDS011;6793;55.662;13.114;2024-03-29T09:20:08;0.70;;;0.70;;
13441;SDS011;6793;55.662;13.114;2024-03-29T09:22:35;0.60;;;0.60;;
13441;SDS011;6793;55.662;13.114;2024-03-29T09:25:03;0.70;;;0.70;;
13441;SDS011;6793;55.662;13.114;2024-03-29T09:27:30;0.60;;;0.60;;
13441;SDS011;6793;55.662;13.114;2024-03-29T09:30:00;0.70;;;0.70;;
13441;SDS011;6793;55.662;13.114;2024-03-29T09:32:30;0.70;;;0.70;;
13441;SDS011;6793;55.662;13.114;2024-03-29T09:34:57;0.60;;;0.60;;
13441;SDS011;6793;55.662;13.114;2024-03-29T09:37:25;0.80;;;0.80;;
13441;SDS011;6793;55.662;13.114;2024-03-29T09:39:52;0.70;;;0.70;;
13441;SDS011;6793;55.662;13.114;2024-03-29T09:42:20;0.60;;;0.60;;
13441;SDS011;6793;55.662;13.114;2024-03-29T09:44:50;0.63;;;0.63;;
13441;SDS011;6793;55.662;13.114;2024-03-29T09:47:18;0.60;;;0.60;;
13441;SDS011;6793;55.662;13.114;2024-03-29T09:49:46;0.60;;;0.60;;
13441;SDS011;6793;55.662;13.114;2024-03-29T09:52:15;0.60;;;0.60;;
13441;SDS011;6793;55.662;13.114;2024-03-29T09:54:43;0.57;;;0.57;;
13441;SDS011;6793;55.662;13.114;2024-03-29T09:57:10;0.60;;;0.60;;
13441;SDS011;6793;55.662;13.114;2024-03-29T09:59:39;0.60;;;0.60;;
13441;SDS011;6793;55.662;13.114;2024-03-29T10:02:09;0.60;;;0.60;;
13441;SDS011;6793;55.662;13.114;2024-03-29T10:04:38;0.68;;;0.68;;
13441;SDS011;6793;55.662;13.114;2024-03-29T10:07:07;0.63;;;0.63;;
13441;SDS011;6793;55.662;13.114;2024-03-29T10:09:35;0.60;;;0.60;;
13441;SDS011;6793;55.662;13.114;2024-03-29T10:12:02;0.60;;;0.60;;
13441;SDS011;6793;55.662;13.114;2024-03-29T10:14:30;0.60;;;0.60;;
13441;SDS011;6793;55.662;13.114;2024-03-29T10:16:57;0.60;;;0.60;;
13441;SDS011;6793;55.662;13.114;2024-03-29T10:19:25;0.60;;;0.60;;
13441;SDS011;6793;55.662;13.114;2024-03-29T10:21:52;0.60;;;0.60;;
13441;SDS011;6793;55.662;13.114;2024-03-29T10:24:20;0.52;;;0.52;;
13441;SDS011;6793;55.662;13.114;2024-03-29T10:26:47;0.60;;;0.60;;
13441;SDS011;6793;55.662;13.114;2024-03-29T10:29:14;0.60;;;0.60;;
13441;SDS011;6793;55.662;13.114;2024-03-29T10:31:41;0.60;;;0.60;;
13441;SDS011;6793;55.662;13.114;2024-03-29T10:34:08;0.60;;;0.60;;
13441;SDS011;6793;55.662;13.114;2024-03-29T10:36:36;0.70;;;0.70;;
13441;SDS011;6793;55.662;13.114;2024-03-29T10:39:08;0.70;;;0.70;;
13441;SDS011;6793;55.662;13.114;2024-03-29T10:41:39;0.60;;;0.60;;
13441;SDS011;6793;55.662;13.114;2024-03-29T10:44:07;0.50;;;0.50;;
13441;SDS011;6793;55.662;13.114;2024-03-29T10:46:36;0.70;;;0.70;;
13441;SDS011;6793;55.662;13.114;2024-03-29T10:49:04;0.70;;;0.70;;
13441;SDS011;6793;55.662;13.114;2024-03-29T10:51:34;0.70;;;0.70;;
13441;SDS011;6793;55.662;13.114;2024-03-29T10:54:03;0.60;;;0.60;;
13441;SDS011;6793;55.662;13.114;2024-03-29T10:56:31;0.60;;;0.60;;
13441;SDS011;6793;55.662;13.114;2024-03-29T10:59:01;0.63;;;0.63;;
13441;SDS011;6793;55.662;13.114;2024-03-29T11:01:33;0.60;;;0.60;;
13441;SDS011;6793;55.662;13.114;2024-03-29T11:04:03;0.63;;;0.63;;
13441;SDS011;6793;55.662;13.114;2024-03-29T11:06:33;0.60;;;0.60;;
13441;SDS011;6793;55.662;13.114;2024-03-29T11:09:03;0.60;;;0.60;;
13441;SDS011;6793;55.662;13.114;2024-03-29T11:11:31;0.65;;;0.65;;
13441;SDS011;6793;55.662;13.114;2024-03-29T11:14:03;0.70;;;0.70;;
13441;SDS011;6793;55.662;13.114;2024-03-29T11:16:31;0.60;;;0.60;;
13441;SDS011;6793;55.662;13.114;2024-03-29T11:18:59;0.65;;;0.65;;
13441;SDS011;6793;55.662;13.114;2024-03-29T11:21:29;0.60;;;0.60;;
13441;SDS011;6793;55.662;13.114;2024-03-29T11:23:57;0.50;;;0.50;;
13441;SDS011;6793;55.662;13.114;2024-03-29T11:26:26;0.50;;;0.50;;
13441;SDS011;6793;55.662;13.114;2024-03-29T11:28:54;0.60;;;0.60;;
13441;SDS011;6793;55.662;13.114;2024-03-29T11:31:25;0.50;;;0.50;;
13441;SDS011;6793;55.662;13.114;2024-03-29T11:33:52;0.60;;;0.60;;
13441;SDS011;6793;55.662;13.114;2024-03-29T11:36:20;0.60;;;0.60;;
13441;SDS011;6793;55.662;13.114;2024-03-29T11:38:49;0.60;;;0.60;;
13441;SDS011;6793;55.662;13.114;2024-03-29T11:41:16;0.50;;;0.50;;
13441;SDS011;6793;55.662;13.114;2024-03-29T11:43:43;0.52;;;0.52;;
13441;SDS011;6793;55.662;13.114;2024-03-29T11:46:12;0.70;;;0.70;;
13441;SDS011;6793;55.662;13.114;2024-03-29T11:48:41;0.60;;;0.60;;
13441;SDS011;6793;55.662;13.114;2024-03-29T11:51:10;0.60;;;0.60;;
13441;SDS011;6793;55.662;13.114;2024-03-29T11:53:39;0.60;;;0.60;;
13441;SDS011;6793;55.662;13.114;2024-03-29T11:56:06;0.60;;;0.60;;
13441;SDS011;6793;55.662;13.114;2024-03-29T11:58:33;0.60;;;0.60;;
13441;SDS011;6793;55.662;13.114;2024-03-29T12:01:00;0.65;;;0.65;;
13441;SDS011;6793;55.662;13.114;2024-03-29T12:03:29;0.70;;;0.70;;
13441;SDS011;6793;55.662;13.114;2024-03-29T12:05:58;0.65;;;0.65;;
13441;SDS011;6793;55.662;13.114;2024-03-29T12:08:27;0.60;;;0.60;;
13441;SDS011;6793;55.662;13.114;2024-03-29T12:10:54;0.70;;;0.70;;
13441;SDS011;6793;55.662;13.114;2024-03-29T12:13:21;0.60;;;0.60;;
13441;SDS011;6793;55.662;13.114;2024-03-29T12:15:48;0.60;;;0.60;;
13441;SDS011;6793;55.662;13.114;2024-03-29T12:18:16;0.70;;;0.70;;
13441;SDS011;6793;55.662;13.114;2024-03-29T12:20:44;0.50;;;0.50;;
13441;SDS011;6793;55.662;13.114;2024-03-29T12:23:15;0.60;;;0.60;;
13441;SDS011;6793;55.662;13.114;2024-03-29T12:25:43;0.52;;;0.52;;
13441;SDS011;6793;55.662;13.114;2024-03-29T12:28:10;0.60;;;0.60;;
13441;SDS011;6793;55.662;13.114;2024-03-29T12:30:37;0.65;;;0.65;;
13441;SDS011;6793;55.662;13.114;2024-03-29T12:33:07;0.70;;;0.70;;
13441;SDS011;6793;55.662;13.114;2024-03-29T12:35:35;0.60;;;0.60;;
13441;SDS011;6793;55.662;13.114;2024-03-29T12:38:03;0.63;;;0.63;;
13441;SDS011;6793;55.662;13.114;2024-03-29T12:40:33;0.60;;;0.60;;
13441;SDS011;6793;55.662;13.114;2024-03-29T12:43:03;0.60;;;0.60;;
13441;SDS011;6793;55.662;13.114;2024-03-29T12:45:30;0.60;;;0.60;;
13441;SDS011;6793;55.662;13.114;2024-03-29T12:47:57;0.60;;;0.60;;
13441;SDS011;6793;55.662;13.114;2024-03-29T12:50:26;0.60;;;0.60;;
13441;SDS011;6793;55.662;13.114;2024-03-29T12:52:53;0.60;;;0.60;;
13441;SDS011;6793;55.662;13.114;2024-03-29T12:55:21;0.57;;;0.57;;
13441;SDS011;6793;55.662;13.114;2024-03-29T12:57:50;0.50;;;0.50;;
13441;SDS011;6793;55.662;13.114;2024-03-29T13:00:18;0.50;;;0.50;;
13441;SDS011;6793;55.662;13.114;2024-03-29T13:02:45;0.60;;;0.60;;
13441;SDS011;6793;55.662;13.114;2024-03-29T13:05:13;0.43;;;0.43;;
13441;SDS011;6793;55.662;13.114;2024-03-29T13:07:40;0.50;;;0.50;;
13441;SDS011;6793;55.662;13.114;2024-03-29T13:10:07;0.50;;;0.50;;
13441;SDS011;6793;55.662;13.114;2024-03-29T13:12:38;0.50;;;0.50;;
13441;SDS011;6793;55.662;13.114;2024-03-29T13:15:15;0.50;;;0.50;;
13441;SDS011;6793;55.662;13.114;2024-03-29T13:17:43;0.40;;;0.40;;
13441;SDS011;6793;55.662;13.114;2024-03-29T13:20:11;0.40;;;0.40;;
13441;SDS011;6793;55.662;13.114;2024-03-29T13:22:38;0.40;;;0.40;;
13441;SDS011;6793;55.662;13.114;2024-03-29T13:25:07;0.50;;;0.50;;
13441;SDS011;6793;55.662;13.114;2024-03-29T13:27:35;0.40;;;0.40;;
13441;SDS011;6793;55.662;13.114;2024-03-29T13:30:03;0.50;;;0.50;;
13441;SDS011;6793;55.662;13.114;2024-03-29T13:32:31;0.52;;;0.52;;
13441;SDS011;6793;55.662;13.114;2024-03-29T13:34:58;0.45;;;0.45;;
13441;SDS011;6793;55.662;13.114;2024-03-29T13:37:26;0.50;;;0.50;;
13441;SDS011;6793;55.662;13.114;2024-03-29T13:39:55;0.50;;;0.50;;
13441;SDS011;6793;55.662;13.114;2024-03-29T13:42:22;0.40;;;0.40;;
13441;SDS011;6793;55.662;13.114;2024-03-29T13:44:49;0.40;;;0.40;;
13441;SDS011;6793;55.662;13.114;2024-03-29T13:47:15;0.50;;;0.50;;
13441;SDS011;6793;55.662;13.114;2024-03-29T13:49:45;0.50;;;0.50;;
13441;SDS011;6793;55.662;13.114;2024-03-29T13:52:12;0.40;;;0.40;;
13441;SDS011;6793;55.662;13.114;2024-03-29T13:54:42;0.50;;;0.50;;
13441;SDS011;6793;55.662;13.114;2024-03-29T13:57:11;0.50;;;0.50;;
13441;SDS011;6793;55.662;13.114;2024-03-29T13:59:38;0.50;;;0.50;;
13441;SDS011;6793;55.662;13.114;2024-03-29T14:02:07;0.50;;;0.50;;
13441;SDS011;6793;55.662;13.114;2024-03-29T14:04:34;0.50;;;0.50;;
13441;SDS011;6793;55.662;13.114;2024-03-29T14:07:03;0.50;;;0.50;;
13441;SDS011;6793;55.662;13.114;2024-03-29T14:09:32;0.40;;;0.40;;
13441;SDS011;6793;55.662;13.114;2024-03-29T14:11:59;0.40;;;0.40;;
13441;SDS011;6793;55.662;13.114;2024-03-29T14:14:27;0.50;;;0.50;;
13441;SDS011;6793;55.662;13.114;2024-03-29T14:16:54;0.40;;;0.40;;
13441;SDS011;6793;55.662;13.114;2024-03-29T14:19:21;0.40;;;0.40;;
13441;SDS011;6793;55.662;13.114;2024-03-29T14:21:48;0.50;;;0.50;;
13441;SDS011;6793;55.662;13.114;2024-03-29T14:24:16;0.40;;;0.40;;
13441;SDS011;6793;55.662;13.114;2024-03-29T14:26:43;0.45;;;0.45;;
13441;SDS011;6793;55.662;13.114;2024-03-29T14:29:10;0.50;;;0.50;;
13441;SDS011;6793;55.662;13.114;2024-03-29T14:31:40;0.40;;;0.40;;
13441;SDS011;6793;55.662;13.114;2024-03-29T14:34:09;0.40;;;0.40;;
13441;SDS011;6793;55.662;13.114;2024-03-29T14:36:36;0.50;;;0.50;;
13441;SDS011;6793;55.662;13.114;2024-03-29T14:39:03;0.50;;;0.50;;
13441;SDS011;6793;55.662;13.114;2024-03-29T14:41:32;0.50;;;0.50;;
13441;SDS011;6793;55.662;13.114;2024-03-29T14:44:01;0.60;;;0.60;;
13441;SDS011;6793;55.662;13.114;2024-03-29T14:46:28;0.60;;;0.60;;
13441;SDS011;6793;55.662;13.114;2024-03-29T14:48:55;0.50;;;0.50;;
13441;SDS011;6793;55.662;13.114;2024-03-29T14:51:22;0.50;;;0.50;;
13441;SDS011;6793;55.662;13.114;2024-03-29T14:53:49;0.60;;;0.60;;
13441;SDS011;6793;55.662;13.114;2024-03-29T14:56:16;0.60;;;0.60;;
13441;SDS011;6793;55.662;13.114;2024-03-29T14:58:45;0.60;;;0.60;;